Strona główna
METAR-TAF:

METAR-TAF

Lotnisko :

Río Cuarto, Argentyna

Szerokość geograficzna: 33-07S, Długość geograficzna: 064-14W, wysokość: 420 m

Aktualna obserwacja pogody

Raport powstał 27 minut temu, godzina 06:00 UTC
Wiatr 15 kt od północno-północny wschód
Temperatura 23°C
Wilgotność 94%
Ciśnienie 1012 hPa
Widzialność: 5000 m
Zachmurzenie całkowite na wysokości 600 ft
zamglenie

METAR: SAOC 240600Z 02015KT 5000 BR OVC006 23/22 Q1012

czas: 03:27 (06:27 UTC)


TAF: brakujący

Obserwacja i prognoza pogody dla ponad 4000 lotnisk (raport METAR i TAF).

Dostępne stacje oznaczono żółtymi i czerwonymi punktami na mapie.

Najedź kursorem aby zobaczyć nazwę stacji.

Kliknij aby zobaczyć obserwacje i prognozy pogody.

Aby zmienić mapę: kliknij na zielony przycisk z czarnym krzyżykiem, aby powiększyć; na zielony przycisk z myślnikiem, aby pomniejszyć; na zielone strzałki, aby przejść do map sąsiednich.


METAR-TAF: